Time;durP1;ratioP1;P1;durP2;ratioP2;P2;SDS_P1;SDS_P2;PMS_P1;PMS_P2;Temp;Humidity;BMP_temperature;BMP_pressure;BME280_temperature;BME280_humidity;BME280_pressure;Samples;Min_cycle;Max_cycle;Signal;HPM_P1;HPM_P2
2023/05/15 05:02:34;;;;;;;;;48.67;39.33;;;;;14.75;62.59;101413.72;6212523;22;45384;-56
2023/05/15 05:04:59;;;;;;;;;50.67;41.67;;;;;14.80;62.60;101408.94;6214054;22;45288;-57
2023/05/15 05:07:24;;;;;;;;;54.00;42.67;;;;;14.83;62.16;101406.94;6215316;22;46937;-56
2023/05/15 05:09:50;;;;;;;;;50.50;38.50;;;;;14.85;63.27;101396.16;6186473;22;72097;-56
2023/05/15 05:12:15;;;;;;;;;50.33;42.00;;;;;14.86;62.59;101397.84;6212374;22;63865;-56
2023/05/15 05:14:40;;;;;;;;;53.50;44.00;;;;;14.89;62.71;101403.91;6212419;22;62740;-56
2023/05/15 05:17:06;;;;;;;;;46.67;35.00;;;;;14.91;63.36;101409.16;6215073;22;45993;-56
2023/05/15 05:19:32;;;;;;;;;52.00;40.25;;;;;14.93;62.99;101407.28;6215273;22;45292;-56
2023/05/15 05:22:00;;;;;;;;;49.33;39.33;;;;;15.02;63.62;101405.88;6215402;22;45202;-57
2023/05/15 05:24:25;;;;;;;;;52.00;41.00;;;;;15.08;63.29;101407.31;6215728;22;45440;-56
2023/05/15 05:26:51;;;;;;;;;50.75;40.25;;;;;15.12;62.97;101404.38;6212659;22;74897;-56
2023/05/15 05:29:16;;;;;;;;;55.25;42.50;;;;;15.18;63.55;101411.19;6188141;22;45477;-57
2023/05/15 05:31:41;;;;;;;;;50.67;39.67;;;;;15.23;64.02;101411.78;6212404;22;66091;-56
2023/05/15 05:34:08;;;;;;;;;50.67;41.00;;;;;15.25;63.69;101409.00;6214663;22;69976;-56
2023/05/15 05:36:33;;;;;;;;;49.67;39.33;;;;;15.29;63.54;101414.09;6188314;22;47168;-56
2023/05/15 05:38:58;;;;;;;;;47.00;38.33;;;;;15.28;63.64;101414.16;6187064;22;45420;-57
2023/05/15 05:41:24;;;;;;;;;49.33;38.67;;;;;15.28;64.08;101411.47;6214039;22;64583;-55
2023/05/15 05:43:50;;;;;;;;;43.00;36.00;;;;;15.30;64.33;101407.75;6213177;22;45335;-56
2023/05/15 05:46:15;;;;;;;;;51.50;38.75;;;;;15.29;64.23;101416.78;6214192;22;72990;-56
2023/05/15 05:48:40;;;;;;;;;49.50;40.00;;;;;15.28;64.58;101411.47;6211419;22;68282;-56
2023/05/15 05:51:05;;;;;;;;;48.00;37.00;;;;;15.30;65.22;101414.94;6186725;22;69175;-56
2023/05/15 05:53:31;;;;;;;;;48.33;37.33;;;;;15.34;64.31;101412.00;6215425;22;45273;-55
2023/05/15 05:55:56;;;;;;;;;49.67;39.67;;;;;15.37;66.98;101411.78;6187486;22;66637;-56
2023/05/15 05:58:22;;;;;;;;;47.67;36.33;;;;;15.28;65.72;101420.41;6188258;22;47995;-57
2023/05/15 06:00:47;;;;;;;;;52.00;41.00;;;;;15.24;66.41;101413.50;6187293;22;47393;-58
2023/05/15 06:03:12;;;;;;;;;50.33;39.33;;;;;15.21;65.48;101410.97;6213348;22;65143;-56
2023/05/15 06:05:38;;;;;;;;;50.00;39.00;;;;;15.22;65.72;101423.44;6213461;22;46115;-56
2023/05/15 06:08:03;;;;;;;;;45.00;36.00;;;;;15.22;65.61;101412.72;6214271;22;70735;-56
2023/05/15 06:10:30;;;;;;;;;50.67;40.33;;;;;15.19;66.30;101418.28;6215094;22;45254;-56
2023/05/15 06:12:55;;;;;;;;;49.00;39.25;;;;;15.24;66.82;101416.19;6214086;22;45205;-56
2023/05/15 06:15:20;;;;;;;;;50.00;40.33;;;;;15.35;66.31;101427.09;6214866;22;45314;-56
2023/05/15 06:17:46;;;;;;;;;52.33;40.33;;;;;15.44;66.33;101427.50;6214761;22;45166;-56
2023/05/15 06:20:11;;;;;;;;;49.67;37.00;;;;;15.52;66.88;101428.75;6213877;22;59360;-59
2023/05/15 06:22:36;;;;;;;;;45.00;35.67;;;;;15.58;67.09;101429.34;6214593;22;45287;-59
2023/05/15 06:25:03;;;;;;;;;51.33;42.00;;;;;15.65;66.58;101428.00;6215079;22;46058;-58
2023/05/15 06:27:29;;;;;;;;;50.33;40.67;;;;;15.74;66.30;101435.50;6213590;22;45494;-57
2023/05/15 06:29:54;;;;;;;;;50.33;41.67;;;;;15.83;65.67;101431.41;6214053;22;45317;-61
2023/05/15 06:32:20;;;;;;;;;51.25;42.50;;;;;15.82;65.32;101425.16;6213964;22;61542;-61
2023/05/15 06:34:45;;;;;;;;;55.00;42.00;;;;;15.83;65.94;101426.91;6187369;22;45974;-62
2023/05/15 06:37:10;;;;;;;;;50.00;39.00;;;;;15.85;65.69;101441.09;6212818;22;73033;-61
2023/05/15 06:39:36;;;;;;;;;53.75;43.00;;;;;15.92;65.45;101428.16;6214350;22;45376;-63
2023/05/15 06:42:01;;;;;;;;;53.00;41.67;;;;;15.95;65.30;101425.25;6214890;22;45587;-63
2023/05/15 06:44:27;;;;;;;;;47.67;38.67;;;;;15.94;65.02;101414.63;6215695;22;45377;-63
2023/05/15 06:46:53;;;;;;;;;48.00;38.00;;;;;16.00;64.87;101420.47;6214981;22;45301;-62
2023/05/15 06:49:18;;;;;;;;;42.33;35.33;;;;;16.03;64.63;101420.31;6216484;22;45241;-58
2023/05/15 06:51:43;;;;;;;;;45.00;36.67;;;;;16.08;64.86;101427.19;6212961;22;45487;-58
2023/05/15 06:54:09;;;;;;;;;46.67;35.33;;;;;16.10;65.03;101419.88;6187936;22;68489;-58
2023/05/15 06:56:34;;;;;;;;;43.00;36.33;;;;;16.15;65.19;101423.13;6213990;22;69679;-58
2023/05/15 06:59:00;;;;;;;;;43.00;36.00;;;;;16.15;64.75;101423.13;6214071;22;45354;-57
2023/05/15 07:01:25;;;;;;;;;45.00;36.00;;;;;16.16;65.26;101424.88;6163113;22;45388;-57
2023/05/15 07:03:50;;;;;;;;;41.33;35.00;;;;;16.20;65.00;101418.34;6214846;22;54737;-57
2023/05/15 07:06:16;;;;;;;;;40.33;33.67;;;;;16.22;65.08;101413.75;6189031;22;45347;-57
2023/05/15 07:08:41;;;;;;;;;53.67;41.33;;;;;16.24;64.70;101419.00;6213837;22;65935;-58
2023/05/15 07:11:07;;;;;;;;;48.33;38.67;;;;;16.31;65.27;101418.53;6215050;22;45469;-57
2023/05/15 07:13:33;;;;;;;;;38.33;32.00;;;;;16.41;64.29;101415.25;6188532;22;46063;-57
2023/05/15 07:15:58;;;;;;;;;48.67;35.33;;;;;16.48;64.16;101413.91;6188716;22;45314;-57
2023/05/15 07:18:24;;;;;;;;;42.00;34.33;;;;;16.57;63.96;101413.28;6212450;22;67007;-57
2023/05/15 07:20:49;;;;;;;;;34.67;31.33;;;;;16.62;64.38;101411.16;6214868;22;59375;-58
2023/05/15 07:23:14;;;;;;;;;46.67;35.33;;;;;16.69;63.84;101416.97;6215598;22;46151;-57
2023/05/15 07:25:40;;;;;;;;;46.00;35.00;;;;;16.79;63.78;101415.41;6214287;22;45293;-57
2023/05/15 07:28:05;;;;;;;;;49.33;35.67;;;;;16.85;63.32;101419.50;6214434;22;64623;-57
2023/05/15 07:30:31;;;;;;;;;39.33;33.67;;;;;16.87;63.31;101412.22;6188608;22;45262;-58
2023/05/15 07:32:56;;;;;;;;;46.00;37.67;;;;;16.93;63.32;101408.28;6214177;22;46849;-57
2023/05/15 07:35:21;;;;;;;;;42.00;34.33;;;;;17.04;63.21;101408.44;6214868;22;68768;-57
2023/05/15 07:37:46;;;;;;;;;42.00;34.00;;;;;17.17;63.33;101405.75;6188903;22;45274;-57
2023/05/15 07:40:12;;;;;;;;;59.00;47.50;;;;;17.36;63.06;101408.91;6215492;22;60375;-57
2023/05/15 07:42:38;;;;;;;;;39.33;31.00;;;;;17.50;62.57;101407.94;6214672;22;46092;-58
2023/05/15 07:45:05;;;;;;;;;43.67;33.67;;;;;17.56;61.74;101414.72;6214728;22;45236;-58
2023/05/15 07:47:30;;;;;;;;;49.67;36.33;;;;;17.61;61.98;101414.38;6214834;22;45408;-58
2023/05/15 07:49:56;;;;;;;;;46.00;37.33;;;;;17.66;61.64;101418.50;6214529;22;54828;-57
2023/05/15 07:52:21;;;;;;;;;40.00;33.67;;;;;17.77;61.85;101419.53;6187492;22;69996;-57
2023/05/15 07:54:46;;;;;;;;;41.00;35.67;;;;;17.84;61.07;101413.63;6214349;22;60353;-58
2023/05/15 07:57:12;;;;;;;;;43.67;32.67;;;;;17.88;60.82;101426.88;6214270;22;63069;-58
2023/05/15 07:59:38;;;;;;;;;37.33;32.33;;;;;17.94;61.08;101421.06;6213441;22;45238;-58
2023/05/15 08:02:03;;;;;;;;;41.33;33.67;;;;;18.00;60.94;101418.81;6186580;22;61335;-57
2023/05/15 08:04:29;;;;;;;;;50.33;39.33;;;;;18.05;60.48;101426.53;6188912;22;45340;-58
2023/05/15 08:06:54;;;;;;;;;36.33;27.00;;;;;18.05;60.42;101425.69;6215285;22;45261;-57
2023/05/15 08:09:20;;;;;;;;;44.33;34.00;;;;;18.03;60.61;101423.13;6216111;22;45444;-58
2023/05/15 08:11:45;;;;;;;;;45.67;38.33;;;;;18.04;60.19;101423.97;6214017;22;73958;-58
2023/05/15 08:14:10;;;;;;;;;34.67;29.67;;;;;18.05;60.21;101421.16;6215632;22;45277;-58
2023/05/15 08:16:36;;;;;;;;;44.67;33.67;;;;;18.02;60.00;101418.69;6187539;22;55311;-58
2023/05/15 08:19:03;;;;;;;;;40.67;33.00;;;;;17.97;60.18;101416.31;6216369;22;45304;-58
2023/05/15 08:21:32;;;;;;;;;41.00;33.33;;;;;17.95;60.21;101422.78;6215381;22;45853;-58
2023/05/15 08:23:59;;;;;;;;;40.00;33.67;;;;;17.98;60.36;101414.53;6214400;22;45284;-58
2023/05/15 08:26:24;;;;;;;;;47.00;36.33;;;;;18.06;59.96;101416.66;6215802;22;45249;-58
2023/05/15 08:28:49;;;;;;;;;47.67;35.00;;;;;18.04;60.01;101410.50;6213280;22;45348;-58
2023/05/15 08:31:15;;;;;;;;;40.67;35.00;;;;;18.06;60.12;101409.44;6214852;22;74071;-58
2023/05/15 08:33:40;;;;;;;;;50.00;36.33;;;;;18.10;60.02;101413.63;6214776;22;50610;-58
2023/05/15 08:36:06;;;;;;;;;49.00;37.33;;;;;18.18;60.27;101405.84;6214822;22;68599;-58
2023/05/15 08:38:32;;;;;;;;;56.67;40.00;;;;;18.28;59.65;101397.97;6215358;22;45535;-61
2023/05/15 08:41:01;;;;;;;;;48.33;38.00;;;;;18.38;59.57;101400.81;6214435;22;46073;-62
2023/05/15 08:43:28;;;;;;;;;40.67;37.00;;;;;18.48;59.29;101390.25;6214810;22;45356;-61
2023/05/15 08:45:54;;;;;;;;;48.00;35.00;;;;;18.57;59.31;101389.56;6214541;22;57385;-61
2023/05/15 08:48:20;;;;;;;;;41.67;35.00;;;;;18.73;58.91;101388.41;6214996;22;45408;-61
2023/05/15 08:50:46;;;;;;;;;44.00;36.67;;;;;18.81;58.52;101389.56;6188577;22;47793;-61
2023/05/15 08:53:13;;;;;;;;;53.00;40.00;;;;;18.99;58.41;101392.72;6216094;22;45313;-61
2023/05/15 08:55:39;;;;;;;;;54.67;33.67;;;;;19.24;58.12;101398.94;6166812;22;45286;-61
2023/05/15 08:58:04;;;;;;;;;48.00;36.33;;;;;19.42;57.57;101399.31;6218707;22;45586;-61
2023/05/15 09:00:30;;;;;;;;;46.67;37.00;;;;;19.58;57.18;101396.28;6187665;22;47036;-57
2023/05/15 09:02:58;;;;;;;;;45.00;35.00;;;;;19.74;56.73;101400.47;6212698;22;66920;-58
2023/05/15 09:05:24;;;;;;;;;44.00;35.67;;;;;19.85;56.31;101400.47;6215501;22;45236;-57
2023/05/15 09:07:50;;;;;;;;;46.00;37.33;;;;;19.97;56.11;101401.34;6187536;22;45305;-56
2023/05/15 09:10:15;;;;;;;;;37.67;31.33;;;;;20.04;55.57;101391.78;6187611;22;55186;-56
2023/05/15 09:12:43;;;;;;;;;43.33;34.67;;;;;20.15;55.04;101391.78;6187322;22;45451;-57
2023/05/15 09:15:16;;;;;;;;;33.67;30.67;;;;;20.20;54.26;101388.69;6214941;22;45198;-56
2023/05/15 09:17:42;;;;;;;;;47.67;35.33;;;;;20.19;54.55;101394.22;6213819;22;45257;-57
2023/05/15 09:20:31;;;;;;;;;40.00;31.67;;;;;20.16;54.22;101400.72;6214819;22;46445;-56
2023/05/15 09:22:57;;;;;;;;;46.67;39.00;;;;;20.14;54.44;101398.16;6214304;22;45335;-57
2023/05/15 09:25:37;;;;;;;;;44.33;33.00;;;;;20.15;54.81;101390.91;6215869;22;45335;-57
2023/05/15 09:28:04;;;;;;;;;39.00;34.33;;;;;20.21;54.41;101390.41;6214531;22;45110;-56
2023/05/15 09:30:30;;;;;;;;;50.00;37.00;;;;;20.23;53.58;101390.28;6215051;22;45213;-57
2023/05/15 09:33:00;;;;;;;;;44.67;36.00;;;;;20.27;53.89;101386.31;6214875;22;45153;-57
2023/05/15 09:35:35;;;;;;;;;45.00;37.33;;;;;20.33;53.87;101378.56;6187814;22;45306;-57
2023/05/15 09:38:02;;;;;;;;;50.33;39.00;;;;;20.40;53.99;101378.06;6214720;22;45245;-56
2023/05/15 09:40:29;;;;;;;;;50.33;38.67;;;;;20.53;53.57;101386.88;6187645;22;46040;-57
2023/05/15 09:42:55;;;;;;;;;50.33;37.67;;;;;20.67;53.87;101380.31;6214251;22;45600;-57
2023/05/15 09:45:20;;;;;;;;;51.00;38.67;;;;;20.67;53.59;101381.16;6215266;22;45233;-57
2023/05/15 09:47:46;;;;;;;;;47.00;37.00;;;;;20.53;52.80;101384.16;6214307;22;45415;-57
2023/05/15 09:50:11;;;;;;;;;48.00;37.67;;;;;20.45;53.08;101392.06;6186541;22;68349;-56
2023/05/15 09:52:37;;;;;;;;;48.67;40.33;;;;;20.34;53.49;101392.97;6186648;22;51583;-56
2023/05/15 09:55:04;;;;;;;;;48.33;38.67;;;;;20.15;53.64;101394.47;6187457;22;45368;-57
2023/05/15 09:57:29;;;;;;;;;45.67;34.33;;;;;20.03;53.30;101391.91;6214993;22;45281;-57
2023/05/15 10:00:00;;;;;;;;;50.67;39.00;;;;;19.93;53.94;101387.25;6185212;22;46097;-56
2023/05/15 10:02:30;;;;;;;;;49.00;38.67;;;;;19.91;54.23;101402.69;6208670;22;45311;-56
2023/05/15 10:04:56;;;;;;;;;50.33;38.67;;;;;19.94;54.08;101394.34;6187262;22;45265;-57
2023/05/15 10:07:30;;;;;;;;;58.00;42.00;;;;;19.97;53.90;101407.63;6214209;22;45250;-57
2023/05/15 10:09:55;;;;;;;;;47.00;37.67;;;;;20.08;53.64;101406.75;6213597;22;47282;-57
2023/05/15 10:12:22;;;;;;;;;52.00;37.33;;;;;20.08;53.98;101400.50;6214803;22;45403;-57
2023/05/15 10:14:47;;;;;;;;;49.33;40.33;;;;;20.36;53.00;101401.78;6213325;22;69331;-56
2023/05/15 10:17:13;;;;;;;;;47.33;37.00;;;;;20.49;53.08;101402.50;6213742;22;63408;-56
2023/05/15 10:19:39;;;;;;;;;42.33;35.67;;;;;20.77;52.92;101396.66;6187745;22;46626;-56
2023/05/15 10:22:05;;;;;;;;;50.67;40.00;;;;;21.08;51.58;101391.34;6164517;22;45434;-56
2023/05/15 10:24:31;;;;;;;;;50.33;34.67;;;;;21.43;51.58;101395.56;6215902;22;45171;-57
2023/05/15 10:26:57;;;;;;;;;46.67;39.00;;;;;21.71;50.67;101399.47;6188849;22;49959;-57
2023/05/15 10:29:25;;;;;;;;;50.00;40.00;;;;;21.85;50.60;101394.66;6215270;22;47330;-57
2023/05/15 10:31:51;;;;;;;;;54.67;42.00;;;;;21.89;50.70;101399.69;6214384;22;45255;-57
2023/05/15 10:34:17;;;;;;;;;42.33;35.00;;;;;21.93;50.48;101400.28;6189502;22;45743;-57
2023/05/15 10:36:43;;;;;;;;;48.33;37.00;;;;;21.83;50.52;101396.66;6215508;22;45209;-57
2023/05/15 10:39:09;;;;;;;;;43.67;34.33;;;;;22.02;50.49;101393.16;6214856;22;45536;-57
2023/05/15 10:41:36;;;;;;;;;43.67;34.00;;;;;22.13;49.92;101387.66;6188380;22;45294;-57
2023/05/15 10:44:02;;;;;;;;;40.67;35.33;;;;;22.07;50.28;101393.59;6215764;22;45524;-57
2023/05/15 10:46:29;;;;;;;;;44.67;36.33;;;;;22.02;49.91;101387.75;6214205;22;69047;-57
2023/05/15 10:48:55;;;;;;;;;42.67;35.67;;;;;22.19;50.06;101391.63;6186727;22;45337;-56
2023/05/15 10:51:28;;;;;;;;;42.33;35.00;;;;;22.28;49.58;101386.25;6216013;22;45301;-57
2023/05/15 10:53:54;;;;;;;;;47.67;35.67;;;;;22.26;48.94;101384.69;6213710;22;45343;-57
2023/05/15 10:56:23;;;;;;;;;52.00;41.33;;;;;22.30;49.42;101383.41;6214545;22;45554;-57
2023/05/15 10:58:50;;;;;;;;;37.33;32.67;;;;;22.41;49.27;101390.56;6185817;22;46139;-56
2023/05/15 11:01:26;;;;;;;;;43.00;37.33;;;;;22.23;49.19;101385.81;6214082;22;45580;-57
2023/05/15 11:04:09;;;;;;;;;43.33;34.00;;;;;22.07;49.39;101385.47;6214432;22;45345;-58
2023/05/15 11:06:36;;;;;;;;;41.67;36.67;;;;;21.78;49.26;101391.66;6215857;22;45436;-57
2023/05/15 11:09:20;;;;;;;;;38.33;33.33;;;;;21.48;50.18;101386.06;6215434;22;46497;-57
2023/05/15 11:11:51;;;;;;;;;43.67;35.00;;;;;21.28;49.98;101382.38;6215173;22;45170;-57
2023/05/15 11:14:20;;;;;;;;;45.67;35.67;;;;;21.14;50.92;101386.25;6215284;22;45249;-57
2023/05/15 11:16:51;;;;;;;;;39.00;34.00;;;;;21.20;50.70;101378.63;6214411;22;45250;-57
2023/05/15 11:19:34;;;;;;;;;23.67;23.00;;;;;21.40;50.34;101387.72;6215630;22;45979;-57
2023/05/15 11:22:25;;;;;;;;;29.00;24.33;;;;;21.59;49.56;101389.69;6187455;22;45313;-57
2023/05/15 11:25:11;;;;;;;;;27.33;23.00;;;;;21.66;48.98;101387.34;6215149;22;45296;-56
2023/05/15 11:27:40;;;;;;;;;24.00;23.33;;;;;21.59;48.48;101389.69;6212642;22;45415;-55
2023/05/15 11:30:07;;;;;;;;;23.67;22.67;;;;;21.39;49.23;101391.41;6213333;22;45326;-56
2023/05/15 11:32:51;;;;;;;;;27.67;21.67;;;;;21.13;49.24;101389.97;6214875;22;45247;-56
2023/05/15 11:35:20;;;;;;;;;23.00;23.00;;;;;20.91;49.67;101390.97;6215941;22;45256;-56
2023/05/15 11:37:48;;;;;;;;;25.67;22.67;;;;;20.74;50.51;101386.97;6214761;22;45485;-56
2023/05/15 11:40:38;;;;;;;;;22.00;21.00;;;;;20.58;50.96;101390.03;6214265;22;46377;-55
2023/05/15 11:43:15;;;;;;;;;24.00;24.00;;;;;20.48;50.86;101384.56;6200909;22;45366;-56
2023/05/15 11:45:42;;;;;;;;;22.33;19.00;;;;;20.45;51.70;101392.91;6159921;22;45345;-55
2023/05/15 11:48:11;;;;;;;;;19.00;17.00;;;;;20.40;51.45;101394.28;6215199;22;45396;-54
2023/05/15 11:50:37;;;;;;;;;27.33;23.67;;;;;20.43;52.45;101386.78;6186433;22;46505;-54
2023/05/15 11:53:04;;;;;;;;;24.67;22.33;;;;;20.52;52.20;101387.88;6216000;22;45321;-54
2023/05/15 11:55:31;;;;;;;;;21.00;20.33;;;;;20.54;52.67;101382.34;6215017;22;45210;-54
2023/05/15 11:57:57;;;;;;;;;21.33;21.33;;;;;20.52;52.76;101374.38;6178220;22;45796;-54
2023/05/15 12:00:22;;;;;;;;;30.67;24.33;;;;;20.59;52.78;101378.25;6212633;22;63832;-54
2023/05/15 12:02:48;;;;;;;;;25.67;24.67;;;;;20.71;52.31;101379.09;6212771;22;45451;-54
2023/05/15 12:05:13;;;;;;;;;28.00;22.33;;;;;20.81;52.00;101377.34;6187192;22;45355;-53
2023/05/15 12:07:40;;;;;;;;;32.50;27.50;;;;;21.06;52.39;101371.72;6212714;22;64056;-53
2023/05/15 12:10:08;;;;;;;;;31.33;23.67;;;;;21.28;51.67;101368.84;6214177;22;45474;-53
2023/05/15 12:12:35;;;;;;;;;29.00;26.67;;;;;21.43;51.58;101373.91;6185592;22;45273;-54
2023/05/15 12:15:00;;;;;;;;;31.33;25.00;;;;;21.54;51.58;101373.00;6214817;22;45479;-52
2023/05/15 12:17:26;;;;;;;;;35.67;31.00;;;;;21.59;51.46;101373.47;6213555;22;61643;-53
2023/05/15 12:19:52;;;;;;;;;30.00;29.67;;;;;21.62;51.42;101376.75;6214183;22;45548;-53
2023/05/15 12:22:17;;;;;;;;;32.00;27.00;;;;;21.70;51.79;101373.38;6213934;22;45393;-54
2023/05/15 12:24:44;;;;;;;;;28.67;27.00;;;;;21.76;51.76;101375.53;6212082;22;45371;-53
2023/05/15 12:27:09;;;;;;;;;34.00;30.00;;;;;21.73;51.62;101375.84;6213201;22;45457;-54
2023/05/15 12:29:36;;;;;;;;;26.67;24.33;;;;;21.87;52.30;101384.56;6213233;22;45446;-55
2023/05/15 12:32:01;;;;;;;;;27.00;23.33;;;;;22.14;51.76;101376.66;6186372;22;45489;-54
2023/05/15 12:34:27;;;;;;;;;24.67;24.00;;;;;22.36;50.95;101374.75;6214586;22;45462;-54
2023/05/15 12:36:52;;;;;;;;;29.67;25.00;;;;;22.54;50.89;101393.91;6214127;22;45585;-54
2023/05/15 12:39:17;;;;;;;;;27.67;24.33;;;;;22.60;50.22;101390.59;6213102;22;72220;-53
2023/05/15 12:41:43;;;;;;;;;27.33;21.00;;;;;22.63;49.50;101386.75;6159465;22;72055;-54
2023/05/15 12:44:16;;;;;;;;;26.67;24.67;;;;;22.80;49.57;101396.03;6187481;22;45298;-54
2023/05/15 12:46:41;;;;;;;;;19.00;19.00;;;;;22.98;49.72;101392.63;6212603;22;45201;-54
2023/05/15 12:49:07;;;;;;;;;24.00;22.67;;;;;22.94;49.06;101390.22;6211391;22;71892;-54
2023/05/15 12:51:32;;;;;;;;;21.67;19.33;;;;;22.83;47.92;101381.34;6212356;22;64644;-54
2023/05/15 12:53:58;;;;;;;;;22.00;19.00;;;;;22.71;48.62;101386.03;6212393;22;65731;-54
2023/05/15 12:56:23;;;;;;;;;21.00;20.00;;;;;22.61;47.90;101380.63;6186387;22;45464;-55
2023/05/15 12:58:49;;;;;;;;;20.33;19.00;;;;;22.55;47.87;101383.91;6161154;22;46536;-54
2023/05/15 13:01:16;;;;;;;;;20.67;18.00;;;;;22.62;48.10;101376.94;6214059;22;45273;-55
2023/05/15 13:03:42;;;;;;;;;20.33;18.67;;;;;22.66;46.40;101380.19;6162036;22;45306;-53
2023/05/15 13:06:09;;;;;;;;;17.67;16.00;;;;;22.55;47.01;101381.19;6212783;22;45500;-54
2023/05/15 13:08:39;;;;;;;;;14.00;13.33;;;;;22.39;47.79;101382.59;6161997;22;46796;-54
2023/05/15 13:11:05;;;;;;;;;19.00;17.67;;;;;22.34;47.68;101387.53;6213494;22;45671;-54
2023/05/15 13:13:44;;;;;;;;;14.67;13.00;;;;;22.21;47.33;101390.50;6213164;22;45423;-54
2023/05/15 13:16:24;;;;;;;;;14.67;14.33;;;;;21.95;49.16;101391.03;6213315;22;45392;-53
2023/05/15 13:18:50;;;;;;;;;15.33;12.67;;;;;21.83;51.04;101383.97;6212379;22;46075;-53
2023/05/15 13:21:16;;;;;;;;;13.00;12.00;;;;;21.96;47.93;101387.28;6186627;22;45250;-54
2023/05/15 13:23:41;;;;;;;;;11.67;11.00;;;;;22.17;47.23;101389.06;6187086;22;45363;-54
2023/05/15 13:26:06;;;;;;;;;12.00;11.00;;;;;22.37;46.92;101392.72;6213172;22;59498;-53
2023/05/15 13:28:33;;;;;;;;;16.00;15.00;;;;;22.48;46.05;101383.63;6210697;22;61280;-54
2023/05/15 13:30:58;;;;;;;;;17.33;12.00;;;;;22.52;46.35;101392.31;6213897;22;45360;-55
2023/05/15 13:33:24;;;;;;;;;10.33;10.33;;;;;22.60;45.52;101387.03;6186751;22;45847;-54
2023/05/15 13:35:50;;;;;;;;;12.67;11.33;;;;;22.59;49.79;101379.91;6213468;22;45471;-54
2023/05/15 13:38:16;;;;;;;;;11.33;11.33;;;;;22.75;45.68;101388.34;6213403;22;46904;-54
2023/05/15 13:40:41;;;;;;;;;13.33;11.00;;;;;22.77;44.69;101382.78;6212532;22;71716;-54
2023/05/15 13:43:06;;;;;;;;;12.67;11.67;;;;;22.78;44.67;101382.63;6213067;22;45305;-53
2023/05/15 13:45:32;;;;;;;;;13.00;11.00;;;;;22.77;44.14;101397.19;6213136;22;68890;-53
2023/05/15 13:47:57;;;;;;;;;11.33;11.00;;;;;22.71;43.60;101391.47;6211703;22;75715;-54
2023/05/15 13:50:22;;;;;;;;;14.33;12.33;;;;;22.58;43.65;101389.03;6213058;22;67602;-51
2023/05/15 13:52:48;;;;;;;;;12.00;10.00;;;;;22.45;43.68;101390.16;6213423;22;45221;-54
2023/05/15 13:55:13;;;;;;;;;12.67;11.33;;;;;22.48;44.30;101393.63;6212910;22;62450;-54
2023/05/15 13:57:39;;;;;;;;;11.33;9.00;;;;;22.55;44.29;101398.31;6211915;22;46945;-54
2023/05/15 14:00:06;;;;;;;;;15.00;13.00;;;;;22.61;43.55;101395.03;6213562;22;45246;-53
2023/05/15 14:02:32;;;;;;;;;12.33;11.00;;;;;22.59;43.34;101388.03;6186011;22;45288;-54
2023/05/15 14:04:57;;;;;;;;;14.00;12.67;;;;;22.46;43.92;101386.47;6212910;22;45344;-53
2023/05/15 14:07:23;;;;;;;;;10.00;10.00;;;;;22.42;44.16;101386.88;6209773;22;46179;-54
2023/05/15 14:09:49;;;;;;;;;14.67;13.33;;;;;22.40;44.68;101387.03;6211435;22;58398;-53
2023/05/15 14:12:14;;;;;;;;;14.00;12.00;;;;;22.38;44.79;101386.28;6213019;22;45261;-54
2023/05/15 14:14:40;;;;;;;;;15.33;13.67;;;;;22.30;45.40;101389.66;6211291;22;63905;-54
2023/05/15 14:17:05;;;;;;;;;20.00;16.33;;;;;22.16;45.79;101394.63;6185865;22;47007;-54
2023/05/15 14:19:30;;;;;;;;;18.00;16.67;;;;;21.90;46.38;101406.81;6212994;22;45633;-54
2023/05/15 14:21:56;;;;;;;;;14.67;14.67;;;;;21.60;49.15;101395.00;6212838;22;61453;-54
2023/05/15 14:24:21;;;;;;;;;16.67;16.67;;;;;21.36;48.88;101397.09;6186570;22;45384;-53
2023/05/15 14:26:47;;;;;;;;;24.67;18.00;;;;;21.15;49.77;101398.81;6184518;22;72336;-53
2023/05/15 14:29:13;;;;;;;;;19.00;19.00;;;;;20.97;50.52;101405.78;6185750;22;45347;-53
2023/05/15 14:31:38;;;;;;;;;18.67;16.67;;;;;20.71;53.69;101416.09;6213149;22;45334;-54
2023/05/15 14:34:04;;;;;;;;;20.33;20.00;;;;;20.41;55.76;101415.75;6211883;22;65642;-54
2023/05/15 14:36:30;;;;;;;;;20.00;17.67;;;;;20.24;55.79;101416.31;6212827;22;46079;-54
2023/05/15 14:38:55;;;;;;;;;16.00;16.00;;;;;20.09;54.78;101413.88;6185664;22;45234;-54
2023/05/15 14:41:21;;;;;;;;;18.00;15.33;;;;;20.01;54.64;101421.69;6212971;22;45399;-54
2023/05/15 14:43:46;;;;;;;;;10.67;10.67;;;;;20.00;54.26;101417.31;6211315;22;45471;-54
2023/05/15 14:46:11;;;;;;;;;9.33;9.00;;;;;20.11;54.94;101417.28;6213158;22;46029;-53
2023/05/15 14:48:37;;;;;;;;;12.00;11.00;;;;;20.36;54.34;101417.13;6211736;22;68115;-52
2023/05/15 14:51:02;;;;;;;;;13.33;13.33;;;;;20.49;53.49;101420.53;6212086;22;65453;-55
2023/05/15 14:53:27;;;;;;;;;13.67;12.00;;;;;20.58;53.74;101413.53;6212864;22;66340;-55
2023/05/15 14:55:54;;;;;;;;;13.33;10.67;;;;;20.59;53.93;101417.94;6212128;22;70754;-54
2023/05/15 14:58:19;;;;;;;;;15.67;14.67;;;;;20.49;54.41;101412.44;6212372;22;45298;-54
2023/05/15 15:00:47;;;;;;;;;18.67;13.33;;;;;20.46;54.91;101410.84;6212931;22;45405;-55
2023/05/15 15:03:12;;;;;;;;;11.67;11.00;;;;;20.36;54.85;101417.97;6212469;22;45264;-54
2023/05/15 15:05:37;;;;;;;;;12.67;7.67;;;;;20.31;54.75;101418.38;6186618;22;45293;-54
2023/05/15 15:08:05;;;;;;;;;8.00;7.00;;;;;20.33;54.86;101424.50;6215417;22;45234;-54
2023/05/15 15:10:35;;;;;;;;;11.00;9.67;;;;;20.36;55.37;101425.25;6188294;22;45477;-54
2023/05/15 15:13:01;;;;;;;;;8.00;7.67;;;;;20.34;54.53;101436.19;6214217;22;45420;-55
2023/05/15 15:15:27;;;;;;;;;6.00;6.00;;;;;20.02;54.54;101441.47;6213987;22;45888;-55
2023/05/15 15:17:55;;;;;;;;;5.33;5.33;;;;;19.70;55.07;101434.94;6213905;22;45422;-55
2023/05/15 15:20:20;;;;;;;;;6.33;6.33;;;;;19.45;56.14;101434.16;6214041;22;45246;-55
2023/05/15 15:22:46;;;;;;;;;5.00;5.00;;;;;19.32;55.87;101436.94;6213597;22;45446;-54
2023/05/15 15:25:12;;;;;;;;;6.67;6.00;;;;;19.27;56.76;101443.69;6214490;22;51578;-54
2023/05/15 15:27:37;;;;;;;;;5.33;5.33;;;;;19.27;56.70;101439.13;6213928;22;45542;-55
2023/05/15 15:30:03;;;;;;;;;6.00;5.00;;;;;19.32;56.52;101444.16;6215081;22;45368;-55
2023/05/15 15:32:29;;;;;;;;;5.67;5.67;;;;;19.41;56.90;101429.97;6215040;22;45676;-55
2023/05/15 15:34:57;;;;;;;;;7.00;7.00;;;;;19.56;57.32;101436.00;6187779;22;45946;-54
2023/05/15 15:37:23;;;;;;;;;5.33;5.33;;;;;19.73;56.84;101431.13;6215155;22;45079;-53
2023/05/15 15:39:48;;;;;;;;;5.00;5.00;;;;;19.83;56.46;101438.41;6214073;22;45653;-54
2023/05/15 15:42:14;;;;;;;;;8.67;6.33;;;;;19.86;55.85;101437.31;6214596;22;45445;-53
2023/05/15 15:44:39;;;;;;;;;5.67;4.33;;;;;19.87;56.40;101433.63;6213517;22;75195;-53
2023/05/15 15:47:04;;;;;;;;;5.00;5.00;;;;;19.87;56.55;101440.84;6214668;22;45582;-54
2023/05/15 15:49:30;;;;;;;;;6.00;6.00;;;;;19.72;56.60;101434.81;6212942;22;64888;-54
2023/05/15 15:51:56;;;;;;;;;10.67;7.00;;;;;19.56;57.26;101441.41;6213765;22;45324;-54
2023/05/15 15:54:21;;;;;;;;;7.00;7.00;;;;;19.43;57.73;101437.94;6214317;22;45448;-53
2023/05/15 15:56:46;;;;;;;;;3.00;1.33;;;;;19.11;60.63;101449.34;6212672;22;45475;-56
2023/05/15 15:59:15;;;;;;;;;2.67;2.33;;;;;18.86;60.00;101453.88;6213685;22;45534;-55
2023/05/15 16:01:41;;;;;;;;;3.00;3.00;;;;;18.86;60.03;101456.56;6213183;22;45337;-54
2023/05/15 16:04:06;;;;;;;;;3.00;3.00;;;;;18.73;61.22;101453.06;6213285;22;67869;-55
2023/05/15 16:06:32;;;;;;;;;3.00;3.00;;;;;18.62;61.33;101468.19;6214539;22;45341;-54
2023/05/15 16:08:57;;;;;;;;;5.33;5.00;;;;;18.46;60.48;101470.28;6213814;22;45551;-54
2023/05/15 16:11:23;;;;;;;;;7.33;6.00;;;;;18.07;61.68;101483.84;6214332;22;45238;-54